sensor_id;sensor_type;location;lat;lon;timestamp;pressure;altitude;pressure_sealevel;temperature;humidity
74649;BME280;63168;49.280;7.214;2023-04-24T00:00:16;97633.63;;;21.02;43.91
74649;BME280;63168;49.280;7.214;2023-04-24T00:02:43;97637.31;;;21.01;44.05
74649;BME280;63168;49.280;7.214;2023-04-24T00:05:12;97638.28;;;21.00;43.84
74649;BME280;63168;49.280;7.214;2023-04-24T00:07:40;97640.16;;;20.99;44.06
74649;BME280;63168;49.280;7.214;2023-04-24T00:10:06;97633.97;;;20.99;44.13
74649;BME280;63168;49.280;7.214;2023-04-24T00:12:32;97623.31;;;20.99;43.99
74649;BME280;63168;49.280;7.214;2023-04-24T00:14:57;97625.97;;;20.99;44.22
74649;BME280;63168;49.280;7.214;2023-04-24T00:17:23;97621.66;;;20.98;44.30
74649;BME280;63168;49.280;7.214;2023-04-24T00:19:49;97644.63;;;20.99;44.16
74649;BME280;63168;49.280;7.214;2023-04-24T00:22:16;97630.69;;;20.97;44.17
74649;BME280;63168;49.280;7.214;2023-04-24T00:24:43;97623.66;;;20.95;44.35
74649;BME280;63168;49.280;7.214;2023-04-24T00:27:08;97634.31;;;20.95;44.05
74649;BME280;63168;49.280;7.214;2023-04-24T00:29:34;97613.16;;;20.94;44.38
74649;BME280;63168;49.280;7.214;2023-04-24T00:31:59;97628.19;;;20.95;44.30
74649;BME280;63168;49.280;7.214;2023-04-24T00:34:25;97626.69;;;20.92;44.09
74649;BME280;63168;49.280;7.214;2023-04-24T00:36:50;97622.00;;;20.94;43.87
74649;BME280;63168;49.280;7.214;2023-04-24T00:39:17;97620.34;;;20.93;44.08
74649;BME280;63168;49.280;7.214;2023-04-24T00:41:44;97627.69;;;20.91;44.14
74649;BME280;63168;49.280;7.214;2023-04-24T00:44:10;97640.03;;;20.92;44.44
74649;BME280;63168;49.280;7.214;2023-04-24T00:46:36;97642.00;;;20.90;44.39
74649;BME280;63168;49.280;7.214;2023-04-24T00:49:02;97658.00;;;20.90;44.13
74649;BME280;63168;49.280;7.214;2023-04-24T00:51:27;97657.16;;;20.90;44.12
74649;BME280;63168;49.280;7.214;2023-04-24T00:53:53;97667.81;;;20.90;44.22
74649;BME280;63168;49.280;7.214;2023-04-24T00:56:18;97660.84;;;20.89;44.35
74649;BME280;63168;49.280;7.214;2023-04-24T00:58:46;97661.66;;;20.89;44.37
74649;BME280;63168;49.280;7.214;2023-04-24T01:01:12;97667.94;;;20.88;44.23
74649;BME280;63168;49.280;7.214;2023-04-24T01:03:38;97674.16;;;20.89;44.33
74649;BME280;63168;49.280;7.214;2023-04-24T01:06:05;97672.47;;;20.88;44.51
74649;BME280;63168;49.280;7.214;2023-04-24T01:08:30;97668.13;;;20.87;44.12
74649;BME280;63168;49.280;7.214;2023-04-24T01:10:57;97667.31;;;20.86;44.49
74649;BME280;63168;49.280;7.214;2023-04-24T01:13:23;97675.31;;;20.86;44.42
74649;BME280;63168;49.280;7.214;2023-04-24T01:15:50;97676.31;;;20.85;44.49
74649;BME280;63168;49.280;7.214;2023-04-24T01:18:16;97678.13;;;20.85;44.36
74649;BME280;63168;49.280;7.214;2023-04-24T01:20:42;97679.97;;;20.84;44.51
74649;BME280;63168;49.280;7.214;2023-04-24T01:23:10;97671.97;;;20.84;44.25
74649;BME280;63168;49.280;7.214;2023-04-24T01:25:36;97680.81;;;20.85;44.29
74649;BME280;63168;49.280;7.214;2023-04-24T01:28:03;97680.13;;;20.82;44.55
74649;BME280;63168;49.280;7.214;2023-04-24T01:30:29;97685.28;;;20.84;44.46
74649;BME280;63168;49.280;7.214;2023-04-24T01:32:55;97682.78;;;20.82;44.18
74649;BME280;63168;49.280;7.214;2023-04-24T01:35:21;97680.28;;;20.81;44.25
74649;BME280;63168;49.280;7.214;2023-04-24T01:37:47;97685.63;;;20.81;44.52
74649;BME280;63168;49.280;7.214;2023-04-24T01:40:14;97680.28;;;20.81;44.19
74649;BME280;63168;49.280;7.214;2023-04-24T01:42:40;97682.16;;;20.80;44.56
74649;BME280;63168;49.280;7.214;2023-04-24T01:45:09;97689.28;;;20.80;44.33
74649;BME280;63168;49.280;7.214;2023-04-24T01:47:35;97698.13;;;20.80;44.19
74649;BME280;63168;49.280;7.214;2023-04-24T01:50:01;97692.97;;;20.79;44.56
74649;BME280;63168;49.280;7.214;2023-04-24T01:52:26;97700.97;;;20.79;44.25
74649;BME280;63168;49.280;7.214;2023-04-24T01:54:53;97703.63;;;20.79;44.54
74649;BME280;63168;49.280;7.214;2023-04-24T01:57:22;97690.47;;;20.77;44.57
74649;BME280;63168;49.280;7.214;2023-04-24T01:59:48;97696.66;;;20.78;44.55
74649;BME280;63168;49.280;7.214;2023-04-24T02:02:13;97698.47;;;20.77;44.48
74649;BME280;63168;49.280;7.214;2023-04-24T02:04:39;97710.13;;;20.76;44.34
74649;BME280;63168;49.280;7.214;2023-04-24T02:07:04;97701.28;;;20.76;44.27
74649;BME280;63168;49.280;7.214;2023-04-24T02:09:30;97708.28;;;20.77;44.37
74649;BME280;63168;49.280;7.214;2023-04-24T02:11:55;97710.28;;;20.75;44.63
74649;BME280;63168;49.280;7.214;2023-04-24T02:14:22;97719.25;;;20.74;44.32
74649;BME280;63168;49.280;7.214;2023-04-24T02:16:48;97705.94;;;20.74;44.20
74649;BME280;63168;49.280;7.214;2023-04-24T02:19:13;97713.94;;;20.74;44.28
74649;BME280;63168;49.280;7.214;2023-04-24T02:21:39;97716.59;;;20.74;44.22
74649;BME280;63168;49.280;7.214;2023-04-24T02:24:04;97720.28;;;20.73;44.51
74649;BME280;63168;49.280;7.214;2023-04-24T02:26:29;97733.59;;;20.73;44.33
74649;BME280;63168;49.280;7.214;2023-04-24T02:28:56;97736.25;;;20.73;44.32
74649;BME280;63168;49.280;7.214;2023-04-24T02:31:23;97737.25;;;20.72;44.11
74649;BME280;63168;49.280;7.214;2023-04-24T02:33:49;97747.91;;;20.72;44.17
74649;BME280;63168;49.280;7.214;2023-04-24T02:36:14;97744.41;;;20.71;44.15
74649;BME280;63168;49.280;7.214;2023-04-24T02:38:40;97748.94;;;20.71;44.24
74649;BME280;63168;49.280;7.214;2023-04-24T02:41:05;97753.41;;;20.70;44.55
74649;BME280;63168;49.280;7.214;2023-04-24T02:43:31;97756.06;;;20.70;44.49
74649;BME280;63168;49.280;7.214;2023-04-24T02:45:57;97749.09;;;20.69;44.41
74649;BME280;63168;49.280;7.214;2023-04-24T02:48:24;97749.91;;;20.69;44.60
74649;BME280;63168;49.280;7.214;2023-04-24T02:50:49;97752.75;;;20.68;44.24
74649;BME280;63168;49.280;7.214;2023-04-24T02:53:15;97744.75;;;20.68;44.46
74649;BME280;63168;49.280;7.214;2023-04-24T02:55:41;97751.94;;;20.67;44.49
74649;BME280;63168;49.280;7.214;2023-04-24T02:58:06;97756.41;;;20.67;44.61
74649;BME280;63168;49.280;7.214;2023-04-24T03:00:31;97754.59;;;20.67;44.28
74649;BME280;63168;49.280;7.214;2023-04-24T03:02:57;97758.25;;;20.66;44.19
74649;BME280;63168;49.280;7.214;2023-04-24T03:05:23;97761.91;;;20.65;44.13
74649;BME280;63168;49.280;7.214;2023-04-24T03:07:49;97756.56;;;20.65;44.53
74649;BME280;63168;49.280;7.214;2023-04-24T03:10:14;97760.25;;;20.64;44.21
74649;BME280;63168;49.280;7.214;2023-04-24T03:12:40;97751.41;;;20.64;44.49
74649;BME280;63168;49.280;7.214;2023-04-24T03:15:06;97747.09;;;20.63;44.17
74649;BME280;63168;49.280;7.214;2023-04-24T03:17:32;97759.41;;;20.64;44.31
74649;BME280;63168;49.280;7.214;2023-04-24T03:19:57;97756.91;;;20.62;44.37
74649;BME280;63168;49.280;7.214;2023-04-24T03:22:24;97755.25;;;20.61;44.16
74649;BME280;63168;49.280;7.214;2023-04-24T03:24:50;97762.22;;;20.62;44.63
74649;BME280;63168;49.280;7.214;2023-04-24T03:27:15;97762.44;;;20.61;44.24
74649;BME280;63168;49.280;7.214;2023-04-24T03:29:40;97766.91;;;20.60;44.32
74649;BME280;63168;49.280;7.214;2023-04-24T03:32:06;97765.41;;;20.49;42.55
74649;BME280;63168;49.280;7.214;2023-04-24T03:34:31;97770.34;;;20.02;40.42
74649;BME280;63168;49.280;7.214;2023-04-24T03:36:56;97769.22;;;19.70;40.61
74649;BME280;63168;49.280;7.214;2023-04-24T03:39:23;97770.78;;;19.38;40.62
74649;BME280;63168;49.280;7.214;2023-04-24T03:41:50;97773.00;;;19.16;40.70
74649;BME280;63168;49.280;7.214;2023-04-24T03:44:15;97772.66;;;18.93;40.82
74649;BME280;63168;49.280;7.214;2023-04-24T03:46:41;97777.34;;;18.99;41.49
74649;BME280;63168;49.280;7.214;2023-04-24T03:49:06;97773.34;;;19.21;42.13
74649;BME280;63168;49.280;7.214;2023-04-24T03:51:31;97784.25;;;19.45;42.21
74649;BME280;63168;49.280;7.214;2023-04-24T03:53:57;97775.38;;;19.62;42.43
74649;BME280;63168;49.280;7.214;2023-04-24T03:56:23;97780.06;;;19.77;42.43
74649;BME280;63168;49.280;7.214;2023-04-24T03:58:49;97778.09;;;19.87;42.33
74649;BME280;63168;49.280;7.214;2023-04-24T04:01:15;97778.13;;;19.96;42.52
74649;BME280;63168;49.280;7.214;2023-04-24T04:03:41;97783.81;;;20.01;42.50
74649;BME280;63168;49.280;7.214;2023-04-24T04:06:06;97771.84;;;20.05;42.49
74649;BME280;63168;49.280;7.214;2023-04-24T04:08:32;97783.84;;;20.09;42.57
74649;BME280;63168;49.280;7.214;2023-04-24T04:10:57;97779.03;;;20.13;42.90
74649;BME280;63168;49.280;7.214;2023-04-24T04:13:24;97780.69;;;20.14;42.59
74649;BME280;63168;49.280;7.214;2023-04-24T04:15:49;97772.53;;;20.15;42.55
74649;BME280;63168;49.280;7.214;2023-04-24T04:18:15;97785.69;;;20.17;42.81
74649;BME280;63168;49.280;7.214;2023-04-24T04:20:41;97789.16;;;20.17;42.67
74649;BME280;63168;49.280;7.214;2023-04-24T04:23:06;97795.16;;;20.20;42.80
74649;BME280;63168;49.280;7.214;2023-04-24T04:25:31;97793.19;;;20.22;42.70
74649;BME280;63168;49.280;7.214;2023-04-24T04:27:57;97794.84;;;20.23;42.75
74649;BME280;63168;49.280;7.214;2023-04-24T04:30:26;97792.19;;;20.23;42.82
74649;BME280;63168;49.280;7.214;2023-04-24T04:32:51;97785.00;;;20.23;42.86
74649;BME280;63168;49.280;7.214;2023-04-24T04:35:17;97796.50;;;20.24;43.03
74649;BME280;63168;49.280;7.214;2023-04-24T04:37:42;97794.84;;;20.23;42.91
74649;BME280;63168;49.280;7.214;2023-04-24T04:40:08;97800.97;;;20.23;42.71
74649;BME280;63168;49.280;7.214;2023-04-24T04:42:37;97803.66;;;20.23;43.13
74649;BME280;63168;49.280;7.214;2023-04-24T04:45:06;97794.84;;;20.23;43.08
74649;BME280;63168;49.280;7.214;2023-04-24T04:47:35;97802.81;;;20.23;43.13
74649;BME280;63168;49.280;7.214;2023-04-24T04:50:00;97810.81;;;20.23;42.65
74649;BME280;63168;49.280;7.214;2023-04-24T04:52:26;97815.28;;;20.22;43.01
74649;BME280;63168;49.280;7.214;2023-04-24T04:54:52;97819.81;;;20.22;42.93
74649;BME280;63168;49.280;7.214;2023-04-24T04:57:17;97825.94;;;20.22;42.89
74649;BME280;63168;49.280;7.214;2023-04-24T04:59:43;97825.13;;;20.22;42.83
74649;BME280;63168;49.280;7.214;2023-04-24T05:02:08;97832.91;;;20.23;43.16
74649;BME280;63168;49.280;7.214;2023-04-24T05:04:35;97833.94;;;20.22;43.00
74649;BME280;63168;49.280;7.214;2023-04-24T05:07:01;97834.94;;;20.21;43.10
74649;BME280;63168;49.280;7.214;2023-04-24T05:09:26;97837.44;;;20.23;43.07
74649;BME280;63168;49.280;7.214;2023-04-24T05:11:54;97838.44;;;20.22;43.11
74649;BME280;63168;49.280;7.214;2023-04-24T05:14:19;97848.06;;;20.23;43.24
74649;BME280;63168;49.280;7.214;2023-04-24T05:16:45;97846.41;;;20.22;42.79
74649;BME280;63168;49.280;7.214;2023-04-24T05:19:10;97855.38;;;20.21;42.81
74649;BME280;63168;49.280;7.214;2023-04-24T05:21:38;97866.03;;;20.21;42.98
74649;BME280;63168;49.280;7.214;2023-04-24T05:24:04;97858.03;;;20.21;42.91
74649;BME280;63168;49.280;7.214;2023-04-24T05:26:30;97866.03;;;20.21;43.20
74649;BME280;63168;49.280;7.214;2023-04-24T05:28:55;97867.03;;;20.20;43.11
74649;BME280;63168;49.280;7.214;2023-04-24T05:31:21;97877.69;;;20.20;42.72
74649;BME280;63168;49.280;7.214;2023-04-24T05:33:46;97880.34;;;20.20;42.73
74649;BME280;63168;49.280;7.214;2023-04-24T05:36:12;97878.69;;;20.18;42.77
74649;BME280;63168;49.280;7.214;2023-04-24T05:38:39;97873.34;;;20.18;42.91
74649;BME280;63168;49.280;7.214;2023-04-24T05:41:04;97878.69;;;20.18;42.95
74649;BME280;63168;49.280;7.214;2023-04-24T05:43:30;97884.81;;;20.19;42.84
74649;BME280;63168;49.280;7.214;2023-04-24T05:45:55;97888.31;;;20.20;43.23
74649;BME280;63168;49.280;7.214;2023-04-24T05:48:21;97890.81;;;20.21;43.20
74649;BME280;63168;49.280;7.214;2023-04-24T05:50:47;97889.97;;;20.21;42.85
74649;BME280;63168;49.280;7.214;2023-04-24T05:53:13;97892.66;;;20.21;42.69
74649;BME280;63168;49.280;7.214;2023-04-24T05:55:40;97900.47;;;20.22;43.13
74649;BME280;63168;49.280;7.214;2023-04-24T05:58:05;97899.31;;;20.25;42.85
74649;BME280;63168;49.280;7.214;2023-04-24T06:00:31;97901.16;;;20.24;42.89
74649;BME280;63168;49.280;7.214;2023-04-24T06:02:56;97900.16;;;20.25;43.05
74649;BME280;63168;49.280;7.214;2023-04-24T06:05:22;97904.47;;;20.26;42.61
74649;BME280;63168;49.280;7.214;2023-04-24T06:07:48;97913.31;;;20.27;42.84
74649;BME280;63168;49.280;7.214;2023-04-24T06:10:13;97911.50;;;20.27;42.94
74649;BME280;63168;49.280;7.214;2023-04-24T06:12:40;97925.63;;;20.28;42.90
74649;BME280;63168;49.280;7.214;2023-04-24T06:15:07;97932.59;;;20.29;42.94
74649;BME280;63168;49.280;7.214;2023-04-24T06:17:32;97930.78;;;20.29;42.70
74649;BME280;63168;49.280;7.214;2023-04-24T06:19:58;97934.28;;;20.30;42.73
74649;BME280;63168;49.280;7.214;2023-04-24T06:22:23;97928.13;;;20.29;43.03
74649;BME280;63168;49.280;7.214;2023-04-24T06:24:49;97933.44;;;20.29;42.66
74649;BME280;63168;49.280;7.214;2023-04-24T06:27:14;97939.59;;;20.30;42.89
74649;BME280;63168;49.280;7.214;2023-04-24T06:29:41;97942.28;;;20.30;42.61
74649;BME280;63168;49.280;7.214;2023-04-24T06:32:06;97941.44;;;20.29;42.67
74649;BME280;63168;49.280;7.214;2023-04-24T06:34:32;97944.09;;;20.29;42.58
74649;BME280;63168;49.280;7.214;2023-04-24T06:36:59;97950.25;;;20.30;42.89
74649;BME280;63168;49.280;7.214;2023-04-24T06:39:24;97947.75;;;20.28;43.06
74649;BME280;63168;49.280;7.214;2023-04-24T06:41:50;97953.88;;;20.29;42.57
74649;BME280;63168;49.280;7.214;2023-04-24T06:44:15;97954.72;;;20.29;43.02
74649;BME280;63168;49.280;7.214;2023-04-24T06:46:43;97959.22;;;20.29;42.66
74649;BME280;63168;49.280;7.214;2023-04-24T06:49:08;97959.22;;;20.29;42.59
74649;BME280;63168;49.280;7.214;2023-04-24T06:51:34;97966.38;;;20.28;42.78
74649;BME280;63168;49.280;7.214;2023-04-24T06:53:59;97966.38;;;20.28;42.51
74649;BME280;63168;49.280;7.214;2023-04-24T06:56:25;97969.88;;;20.29;42.92
74649;BME280;63168;49.280;7.214;2023-04-24T06:58:50;97966.53;;;20.27;42.69
74649;BME280;63168;49.280;7.214;2023-04-24T07:01:16;97971.88;;;20.27;43.00
74649;BME280;63168;49.280;7.214;2023-04-24T07:03:43;97960.38;;;20.26;42.60
74649;BME280;63168;49.280;7.214;2023-04-24T07:06:09;97966.69;;;20.25;42.61
74649;BME280;63168;49.280;7.214;2023-04-24T07:08:36;97971.19;;;20.25;42.97
74649;BME280;63168;49.280;7.214;2023-04-24T07:11:02;97968.53;;;20.25;42.55
74649;BME280;63168;49.280;7.214;2023-04-24T07:13:27;97974.69;;;20.25;42.53
74649;BME280;63168;49.280;7.214;2023-04-24T07:15:53;97979.84;;;20.27;42.67
74649;BME280;63168;49.280;7.214;2023-04-24T07:18:20;97980.16;;;20.24;42.66
74649;BME280;63168;49.280;7.214;2023-04-24T07:20:47;97981.81;;;20.25;43.09
74649;BME280;63168;49.280;7.214;2023-04-24T07:23:12;97977.50;;;20.24;43.05
74649;BME280;63168;49.280;7.214;2023-04-24T07:25:37;97982.84;;;20.24;42.92
74649;BME280;63168;49.280;7.214;2023-04-24T07:28:03;97987.31;;;20.23;42.58
74649;BME280;63168;49.280;7.214;2023-04-24T07:30:29;97988.31;;;20.22;43.08
74649;BME280;63168;49.280;7.214;2023-04-24T07:32:55;97989.31;;;20.21;43.03
74649;BME280;63168;49.280;7.214;2023-04-24T07:35:20;97995.47;;;20.22;42.63
74649;BME280;63168;49.280;7.214;2023-04-24T07:37:47;98002.63;;;20.21;42.68
74649;BME280;63168;49.280;7.214;2023-04-24T07:40:13;98000.81;;;20.22;42.82
74649;BME280;63168;49.280;7.214;2023-04-24T07:42:39;98004.44;;;20.21;42.94
74649;BME280;63168;49.280;7.214;2023-04-24T07:45:05;98006.28;;;20.20;43.12
74649;BME280;63168;49.280;7.214;2023-04-24T07:47:31;98011.59;;;20.20;42.65
74649;BME280;63168;49.280;7.214;2023-04-24T07:49:57;98003.63;;;20.20;42.79
74649;BME280;63168;49.280;7.214;2023-04-24T07:52:23;98016.09;;;20.20;42.59
74649;BME280;63168;49.280;7.214;2023-04-24T07:54:49;98023.22;;;20.19;42.79
74649;BME280;63168;49.280;7.214;2023-04-24T07:57:15;98016.25;;;20.18;42.71
74649;BME280;63168;49.280;7.214;2023-04-24T07:59:41;98016.25;;;20.18;42.87
74649;BME280;63168;49.280;7.214;2023-04-24T08:02:06;98020.72;;;20.17;42.65
74649;BME280;63168;49.280;7.214;2023-04-24T08:04:31;98019.91;;;20.17;43.03
74649;BME280;63168;49.280;7.214;2023-04-24T08:06:57;98019.91;;;20.17;42.73
74649;BME280;63168;49.280;7.214;2023-04-24T08:09:22;98027.91;;;20.17;42.61
74649;BME280;63168;49.280;7.214;2023-04-24T08:11:49;98024.38;;;20.16;42.67
74649;BME280;63168;49.280;7.214;2023-04-24T08:14:15;98024.38;;;20.16;42.99
74649;BME280;63168;49.280;7.214;2023-04-24T08:16:40;98024.38;;;20.16;42.95
74649;BME280;63168;49.280;7.214;2023-04-24T08:19:06;98023.53;;;20.16;43.08
74649;BME280;63168;49.280;7.214;2023-04-24T08:21:31;98029.72;;;20.16;42.62
74649;BME280;63168;49.280;7.214;2023-04-24T08:23:57;98028.03;;;20.15;42.65
74649;BME280;63168;49.280;7.214;2023-04-24T08:26:23;98035.19;;;20.15;42.82
74649;BME280;63168;49.280;7.214;2023-04-24T08:28:50;98039.69;;;20.14;42.74
74649;BME280;63168;49.280;7.214;2023-04-24T08:31:16;98056.47;;;20.15;42.86
74649;BME280;63168;49.280;7.214;2023-04-24T08:33:41;98068.97;;;20.14;43.05
74649;BME280;63168;49.280;7.214;2023-04-24T08:36:07;98070.63;;;20.15;42.92
74649;BME280;63168;49.280;7.214;2023-04-24T08:38:33;98078.63;;;20.15;42.81
74649;BME280;63168;49.280;7.214;2023-04-24T08:41:00;98075.13;;;20.15;43.01
74649;BME280;63168;49.280;7.214;2023-04-24T08:43:26;98080.44;;;20.15;42.74
74649;BME280;63168;49.280;7.214;2023-04-24T08:45:55;98090.25;;;20.14;42.59
74649;BME280;63168;49.280;7.214;2023-04-24T08:48:22;98087.59;;;20.14;42.88
74649;BME280;63168;49.280;7.214;2023-04-24T08:50:48;98097.41;;;20.14;43.05
74649;BME280;63168;49.280;7.214;2023-04-24T08:53:15;98098.25;;;20.14;42.65
74649;BME280;63168;49.280;7.214;2023-04-24T08:55:41;98101.88;;;20.13;42.61
74649;BME280;63168;49.280;7.214;2023-04-24T08:58:09;98096.56;;;20.13;43.06
74649;BME280;63168;49.280;7.214;2023-04-24T09:00:34;98108.06;;;20.14;42.94
74649;BME280;63168;49.280;7.214;2023-04-24T09:03:02;98104.69;;;20.12;42.68
74649;BME280;63168;49.280;7.214;2023-04-24T09:05:28;98121.50;;;20.12;42.76
74649;BME280;63168;49.280;7.214;2023-04-24T09:07:55;98116.03;;;20.14;42.59
74649;BME280;63168;49.280;7.214;2023-04-24T09:10:23;98117.84;;;20.13;42.97
74649;BME280;63168;49.280;7.214;2023-04-24T09:12:50;98117.19;;;20.11;42.72
74649;BME280;63168;49.280;7.214;2023-04-24T09:15:15;98124.16;;;20.12;42.80
74649;BME280;63168;49.280;7.214;2023-04-24T09:17:41;98126.13;;;20.10;43.01
74649;BME280;63168;49.280;7.214;2023-04-24T09:20:08;98122.50;;;20.11;42.56
74649;BME280;63168;49.280;7.214;2023-04-24T09:22:34;98130.50;;;20.11;42.60
74649;BME280;63168;49.280;7.214;2023-04-24T09:25:02;98123.47;;;20.10;42.82
74649;BME280;63168;49.280;7.214;2023-04-24T09:27:28;98127.00;;;20.11;42.65
74649;BME280;63168;49.280;7.214;2023-04-24T09:29:54;98132.31;;;20.11;42.71
74649;BME280;63168;49.280;7.214;2023-04-24T09:32:21;98130.50;;;20.11;42.81
74649;BME280;63168;49.280;7.214;2023-04-24T09:34:47;98126.13;;;20.10;42.81
74649;BME280;63168;49.280;7.214;2023-04-24T09:37:27;98137.63;;;20.11;42.70
74649;BME280;63168;49.280;7.214;2023-04-24T09:40:07;98139.44;;;20.10;42.82
74649;BME280;63168;49.280;7.214;2023-04-24T09:42:33;98138.47;;;20.11;42.97
74649;BME280;63168;49.280;7.214;2023-04-24T09:44:58;98148.28;;;20.11;42.89
74649;BME280;63168;49.280;7.214;2023-04-24T09:47:24;98142.09;;;20.10;42.53
74649;BME280;63168;49.280;7.214;2023-04-24T09:49:49;98150.09;;;20.10;42.68
74649;BME280;63168;49.280;7.214;2023-04-24T09:52:16;98151.94;;;20.10;42.98
74649;BME280;63168;49.280;7.214;2023-04-24T09:54:41;98151.94;;;20.10;42.97
74649;BME280;63168;49.280;7.214;2023-04-24T09:57:07;98154.59;;;20.10;42.53
74649;BME280;63168;49.280;7.214;2023-04-24T09:59:33;98153.75;;;20.09;42.54
74649;BME280;63168;49.280;7.214;2023-04-24T10:01:59;98157.25;;;20.10;42.91
74649;BME280;63168;49.280;7.214;2023-04-24T10:04:27;98149.28;;;20.10;42.72
74649;BME280;63168;49.280;7.214;2023-04-24T10:06:54;98160.91;;;20.09;42.98
74649;BME280;63168;49.280;7.214;2023-04-24T10:09:22;98164.41;;;20.09;42.91
74649;BME280;63168;49.280;7.214;2023-04-24T10:11:50;98163.59;;;20.09;42.86
74649;BME280;63168;49.280;7.214;2023-04-24T10:14:17;98160.06;;;20.08;42.47
74649;BME280;63168;49.280;7.214;2023-04-24T10:16:44;98165.41;;;20.08;42.91
74649;BME280;63168;49.280;7.214;2023-04-24T10:19:10;98168.91;;;20.09;42.63
74649;BME280;63168;49.280;7.214;2023-04-24T10:21:40;98167.06;;;20.09;42.64
74649;BME280;63168;49.280;7.214;2023-04-24T10:24:07;98169.88;;;20.08;42.56
74649;BME280;63168;49.280;7.214;2023-04-24T10:26:36;98168.91;;;20.09;42.66
74649;BME280;63168;49.280;7.214;2023-04-24T10:29:04;98166.25;;;20.09;42.72
74649;BME280;63168;49.280;7.214;2023-04-24T10:31:31;98164.41;;;20.09;42.86
74649;BME280;63168;49.280;7.214;2023-04-24T10:33:59;98160.91;;;20.09;42.57
74649;BME280;63168;49.280;7.214;2023-04-24T10:36:27;98164.56;;;20.08;42.48
74649;BME280;63168;49.280;7.214;2023-04-24T10:38:55;98171.72;;;20.07;42.94
74649;BME280;63168;49.280;7.214;2023-04-24T10:41:25;98177.84;;;20.08;42.56
74649;BME280;63168;49.280;7.214;2023-04-24T10:44:05;98183.03;;;20.09;42.48
74649;BME280;63168;49.280;7.214;2023-04-24T10:46:31;98178.69;;;20.08;42.72
74649;BME280;63168;49.280;7.214;2023-04-24T10:48:57;98186.69;;;20.08;42.75
74649;BME280;63168;49.280;7.214;2023-04-24T10:51:23;98181.38;;;20.08;42.76
74649;BME280;63168;49.280;7.214;2023-04-24T10:53:51;98184.03;;;20.08;42.55
74649;BME280;63168;49.280;7.214;2023-04-24T10:56:17;98184.19;;;20.07;42.32
74649;BME280;63168;49.280;7.214;2023-04-24T10:58:43;98197.47;;;20.07;42.91
74649;BME280;63168;49.280;7.214;2023-04-24T11:01:26;98188.66;;;20.06;42.45
74649;BME280;63168;49.280;7.214;2023-04-24T11:03:55;98195.66;;;20.07;42.71
74649;BME280;63168;49.280;7.214;2023-04-24T11:06:28;98202.81;;;20.07;42.41
74649;BME280;63168;49.280;7.214;2023-04-24T11:09:02;98206.47;;;20.05;42.56
74649;BME280;63168;49.280;7.214;2023-04-24T11:11:28;98205.47;;;20.07;42.50
74649;BME280;63168;49.280;7.214;2023-04-24T11:14:04;98209.94;;;20.06;42.84
74649;BME280;63168;49.280;7.214;2023-04-24T11:16:34;98205.47;;;20.07;42.51
74649;BME280;63168;49.280;7.214;2023-04-24T11:19:01;98211.78;;;20.05;42.88
74649;BME280;63168;49.280;7.214;2023-04-24T11:21:31;98215.25;;;20.06;42.59
74649;BME280;63168;49.280;7.214;2023-04-24T11:23:58;98213.59;;;20.05;42.73
74649;BME280;63168;49.280;7.214;2023-04-24T11:26:24;98214.44;;;20.05;42.60
74649;BME280;63168;49.280;7.214;2023-04-24T11:29:06;98217.13;;;20.05;42.54
74649;BME280;63168;49.280;7.214;2023-04-24T11:31:38;98225.09;;;20.05;42.88
74649;BME280;63168;49.280;7.214;2023-04-24T11:34:11;98223.25;;;20.06;42.45
74649;BME280;63168;49.280;7.214;2023-04-24T11:36:38;98224.25;;;20.05;42.91
74649;BME280;63168;49.280;7.214;2023-04-24T11:39:04;98213.59;;;20.05;42.75
74649;BME280;63168;49.280;7.214;2023-04-24T11:41:29;98223.25;;;20.06;42.81
74649;BME280;63168;49.280;7.214;2023-04-24T11:43:56;98217.13;;;20.05;42.75
74649;BME280;63168;49.280;7.214;2023-04-24T11:46:21;98221.59;;;20.05;42.38
74649;BME280;63168;49.280;7.214;2023-04-24T11:48:48;98224.25;;;20.05;42.86
74649;BME280;63168;49.280;7.214;2023-04-24T11:51:14;98225.09;;;20.05;42.70
74649;BME280;63168;49.280;7.214;2023-04-24T11:53:39;98222.59;;;20.04;42.54
74649;BME280;63168;49.280;7.214;2023-04-24T11:56:05;98215.41;;;20.04;42.57
74649;BME280;63168;49.280;7.214;2023-04-24T11:58:34;98224.25;;;20.05;42.49
74649;BME280;63168;49.280;7.214;2023-04-24T12:01:00;98234.91;;;20.05;42.78
74649;BME280;63168;49.280;7.214;2023-04-24T12:03:26;98235.75;;;20.05;42.46
74649;BME280;63168;49.280;7.214;2023-04-24T12:06:04;98225.09;;;20.05;42.61
74649;BME280;63168;49.280;7.214;2023-04-24T12:08:31;98239.22;;;20.06;42.79
74649;BME280;63168;49.280;7.214;2023-04-24T12:10:57;98232.38;;;20.03;42.58
74649;BME280;63168;49.280;7.214;2023-04-24T12:13:25;98227.06;;;20.03;42.90
74649;BME280;63168;49.280;7.214;2023-04-24T12:15:50;98235.03;;;20.03;42.80
74649;BME280;63168;49.280;7.214;2023-04-24T12:18:16;98236.88;;;20.03;42.67
74649;BME280;63168;49.280;7.214;2023-04-24T12:20:42;98237.69;;;20.03;42.41
74649;BME280;63168;49.280;7.214;2023-04-24T12:23:08;98233.22;;;20.04;42.79
74649;BME280;63168;49.280;7.214;2023-04-24T12:25:34;98230.56;;;20.04;42.27
74649;BME280;63168;49.280;7.214;2023-04-24T12:28:09;98222.59;;;20.04;42.73
74649;BME280;63168;49.280;7.214;2023-04-24T12:30:40;98211.94;;;20.04;42.78
74649;BME280;63168;49.280;7.214;2023-04-24T12:33:06;98222.59;;;20.04;42.39
74649;BME280;63168;49.280;7.214;2023-04-24T12:35:33;98224.25;;;20.05;42.72
74649;BME280;63168;49.280;7.214;2023-04-24T12:38:05;98229.56;;;20.05;42.87
74649;BME280;63168;49.280;7.214;2023-04-24T12:40:32;98221.59;;;20.05;42.77
74649;BME280;63168;49.280;7.214;2023-04-24T12:42:58;98223.41;;;20.04;42.80
74649;BME280;63168;49.280;7.214;2023-04-24T12:45:23;98225.09;;;20.05;42.42
74649;BME280;63168;49.280;7.214;2023-04-24T12:47:50;98234.91;;;20.05;42.40
74649;BME280;63168;49.280;7.214;2023-04-24T12:50:15;98233.22;;;20.04;42.39
74649;BME280;63168;49.280;7.214;2023-04-24T12:52:41;98240.22;;;20.05;42.70
74649;BME280;63168;49.280;7.214;2023-04-24T12:55:08;98250.88;;;20.05;42.72